sensor_id;sensor_type;location;lat;lon;timestamp;pressure;altitude;pressure_sealevel;temperature;humidity
65010;BME280;51556;50.002;22.014;2023-01-27T00:00:09;99435.60;;;2.51;67.50
65010;BME280;51556;50.002;22.014;2023-01-27T00:02:40;99434.59;;;2.54;67.50
65010;BME280;51556;50.002;22.014;2023-01-27T00:05:06;99436.87;;;2.57;67.49
65010;BME280;51556;50.002;22.014;2023-01-27T00:07:32;99437.37;;;2.55;67.59
65010;BME280;51556;50.002;22.014;2023-01-27T00:09:58;99440.00;;;2.57;67.51
65010;BME280;51556;50.002;22.014;2023-01-27T00:12:25;99439.83;;;2.60;67.43
65010;BME280;51556;50.002;22.014;2023-01-27T00:15:11;99431.16;;;2.63;67.16
65010;BME280;51556;50.002;22.014;2023-01-27T00:17:37;99429.44;;;2.66;67.43
65010;BME280;51556;50.002;22.014;2023-01-27T00:20:04;99427.69;;;2.64;67.47
65010;BME280;51556;50.002;22.014;2023-01-27T00:22:30;99424.89;;;2.63;67.28
65010;BME280;51556;50.002;22.014;2023-01-27T00:25:15;99419.52;;;2.63;67.73
65010;BME280;51556;50.002;22.014;2023-01-27T00:27:41;99417.94;;;2.62;67.25
65010;BME280;51556;50.002;22.014;2023-01-27T00:30:07;99416.37;;;2.59;67.73
65010;BME280;51556;50.002;22.014;2023-01-27T00:32:32;99422.11;;;2.59;67.35
65010;BME280;51556;50.002;22.014;2023-01-27T00:35:17;99426.63;;;2.57;67.36
65010;BME280;51556;50.002;22.014;2023-01-27T00:37:43;99428.55;;;2.58;67.35
65010;BME280;51556;50.002;22.014;2023-01-27T00:40:10;99428.00;;;2.56;67.21
65010;BME280;51556;50.002;22.014;2023-01-27T00:42:36;99428.16;;;2.55;67.66
65010;BME280;51556;50.002;22.014;2023-01-27T00:45:01;99426.27;;;2.58;67.95
65010;BME280;51556;50.002;22.014;2023-01-27T00:47:47;99429.23;;;2.62;67.40
65010;BME280;51556;50.002;22.014;2023-01-27T00:50:12;99425.44;;;2.65;67.61
65010;BME280;51556;50.002;22.014;2023-01-27T00:52:38;99426.14;;;2.67;67.57
65010;BME280;51556;50.002;22.014;2023-01-27T00:55:04;99426.33;;;2.68;67.60
65010;BME280;51556;50.002;22.014;2023-01-27T00:57:30;99421.80;;;2.67;67.74
65010;BME280;51556;50.002;22.014;2023-01-27T00:59:55;99420.22;;;2.65;67.66
65010;BME280;51556;50.002;22.014;2023-01-27T01:02:21;99416.75;;;2.67;67.62
65010;BME280;51556;50.002;22.014;2023-01-27T01:04:47;99418.81;;;2.62;67.56
65010;BME280;51556;50.002;22.014;2023-01-27T01:07:12;99411.14;;;2.56;67.22
65010;BME280;51556;50.002;22.014;2023-01-27T01:09:38;99409.70;;;2.49;67.85
65010;BME280;51556;50.002;22.014;2023-01-27T01:12:04;99411.56;;;2.43;67.74
65010;BME280;51556;50.002;22.014;2023-01-27T01:14:29;99414.96;;;2.36;67.88
65010;BME280;51556;50.002;22.014;2023-01-27T01:16:55;99412.64;;;2.29;68.14
65010;BME280;51556;50.002;22.014;2023-01-27T01:19:21;99416.77;;;2.23;68.23
65010;BME280;51556;50.002;22.014;2023-01-27T01:21:46;99409.58;;;2.14;68.43
65010;BME280;51556;50.002;22.014;2023-01-27T01:24:12;99410.20;;;2.07;68.62
65010;BME280;51556;50.002;22.014;2023-01-27T01:26:38;99408.63;;;2.06;69.01
65010;BME280;51556;50.002;22.014;2023-01-27T01:29:03;99409.98;;;2.02;69.17
65010;BME280;51556;50.002;22.014;2023-01-27T01:31:29;99408.54;;;1.96;69.26
65010;BME280;51556;50.002;22.014;2023-01-27T01:33:55;99407.79;;;1.91;69.22
65010;BME280;51556;50.002;22.014;2023-01-27T01:36:20;99400.65;;;1.89;69.74
65010;BME280;51556;50.002;22.014;2023-01-27T01:38:47;99407.09;;;1.90;69.94
65010;BME280;51556;50.002;22.014;2023-01-27T01:41:15;99409.14;;;1.85;69.97
65010;BME280;51556;50.002;22.014;2023-01-27T01:43:41;99411.39;;;1.85;70.16
65010;BME280;51556;50.002;22.014;2023-01-27T01:46:09;99414.30;;;1.81;70.29
65010;BME280;51556;50.002;22.014;2023-01-27T01:56:22;99406.55;;;1.70;71.04
65010;BME280;51556;50.002;22.014;2023-01-27T01:58:49;99406.14;;;1.66;71.19
65010;BME280;51556;50.002;22.014;2023-01-27T02:01:15;99403.19;;;1.65;71.43
65010;BME280;51556;50.002;22.014;2023-01-27T02:03:44;99403.55;;;1.66;71.21
65010;BME280;51556;50.002;22.014;2023-01-27T02:06:12;99399.34;;;1.62;71.39
65010;BME280;51556;50.002;22.014;2023-01-27T02:08:41;99398.63;;;1.61;71.42
65010;BME280;51556;50.002;22.014;2023-01-27T02:11:08;99396.19;;;1.59;71.38
65010;BME280;51556;50.002;22.014;2023-01-27T02:13:34;99395.46;;;1.57;71.85
65010;BME280;51556;50.002;22.014;2023-01-27T02:16:00;99400.64;;;1.55;71.62
65010;BME280;51556;50.002;22.014;2023-01-27T02:18:27;99400.83;;;1.55;71.90
65010;BME280;51556;50.002;22.014;2023-01-27T02:20:53;99401.33;;;1.54;71.86
65010;BME280;51556;50.002;22.014;2023-01-27T02:28:35;99406.36;;;1.38;72.30
65010;BME280;51556;50.002;22.014;2023-01-27T02:31:01;99403.73;;;1.36;72.04
65010;BME280;51556;50.002;22.014;2023-01-27T02:33:26;99407.21;;;1.37;72.33
65010;BME280;51556;50.002;22.014;2023-01-27T02:36:03;99404.29;;;1.39;72.49
65010;BME280;51556;50.002;22.014;2023-01-27T02:38:34;99408.27;;;1.39;72.40
65010;BME280;51556;50.002;22.014;2023-01-27T02:41:26;99404.11;;;1.38;72.36
65010;BME280;51556;50.002;22.014;2023-01-27T02:43:54;99404.50;;;1.42;72.40
65010;BME280;51556;50.002;22.014;2023-01-27T02:46:20;99406.13;;;1.48;72.46
65010;BME280;51556;50.002;22.014;2023-01-27T02:48:45;99407.23;;;1.54;72.30
65010;BME280;51556;50.002;22.014;2023-01-27T02:51:11;99408.54;;;1.63;72.26
65010;BME280;51556;50.002;22.014;2023-01-27T02:53:37;99407.44;;;1.72;72.34
65010;BME280;51556;50.002;22.014;2023-01-27T02:56:03;99404.70;;;1.76;72.19
65010;BME280;51556;50.002;22.014;2023-01-27T02:58:29;99403.52;;;1.78;71.92
65010;BME280;51556;50.002;22.014;2023-01-27T03:00:54;99405.08;;;1.78;71.96
65010;BME280;51556;50.002;22.014;2023-01-27T03:03:20;99408.37;;;1.78;71.67
65010;BME280;51556;50.002;22.014;2023-01-27T03:05:46;99405.63;;;1.80;71.95
65010;BME280;51556;50.002;22.014;2023-01-27T03:08:12;99404.04;;;1.79;71.83
65010;BME280;51556;50.002;22.014;2023-01-27T03:10:37;99410.55;;;1.70;71.72
65010;BME280;51556;50.002;22.014;2023-01-27T03:13:03;99415.86;;;1.65;72.01
65010;BME280;51556;50.002;22.014;2023-01-27T03:15:29;99414.41;;;1.60;72.04
65010;BME280;51556;50.002;22.014;2023-01-27T03:18:13;99419.20;;;1.54;72.09
65010;BME280;51556;50.002;22.014;2023-01-27T03:20:46;99412.73;;;1.48;72.22
65010;BME280;51556;50.002;22.014;2023-01-27T03:23:13;99413.92;;;1.47;72.39
65010;BME280;51556;50.002;22.014;2023-01-27T03:25:41;99411.29;;;1.44;72.40
65010;BME280;51556;50.002;22.014;2023-01-27T03:28:07;99409.89;;;1.43;72.51
65010;BME280;51556;50.002;22.014;2023-01-27T03:30:33;99410.59;;;1.42;72.47
65010;BME280;51556;50.002;22.014;2023-01-27T03:32:58;99410.92;;;1.42;72.48
65010;BME280;51556;50.002;22.014;2023-01-27T03:35:24;99411.94;;;1.40;72.69
65010;BME280;51556;50.002;22.014;2023-01-27T03:38:00;99414.27;;;1.45;72.67
65010;BME280;51556;50.002;22.014;2023-01-27T03:40:45;99416.71;;;1.47;72.72
65010;BME280;51556;50.002;22.014;2023-01-27T03:43:29;99415.99;;;1.46;72.66
65010;BME280;51556;50.002;22.014;2023-01-27T03:46:13;99415.27;;;1.43;72.83
65010;BME280;51556;50.002;22.014;2023-01-27T03:48:49;99408.61;;;1.37;72.71
65010;BME280;51556;50.002;22.014;2023-01-27T03:51:15;99407.54;;;1.35;72.75
65010;BME280;51556;50.002;22.014;2023-01-27T03:53:41;99402.31;;;1.33;73.08
65010;BME280;51556;50.002;22.014;2023-01-27T03:56:07;99400.05;;;1.32;73.08
65010;BME280;51556;50.002;22.014;2023-01-27T03:58:35;99394.35;;;1.34;73.08
65010;BME280;51556;50.002;22.014;2023-01-27T04:01:06;99393.17;;;1.37;73.08
65010;BME280;51556;50.002;22.014;2023-01-27T04:03:36;99395.09;;;1.39;73.05
65010;BME280;51556;50.002;22.014;2023-01-27T04:06:23;99392.30;;;1.37;73.15
65010;BME280;51556;50.002;22.014;2023-01-27T04:09:08;99392.12;;;1.37;72.96
65010;BME280;51556;50.002;22.014;2023-01-27T04:11:34;99394.73;;;1.37;73.08
65010;BME280;51556;50.002;22.014;2023-01-27T04:14:18;99395.81;;;1.40;73.07
65010;BME280;51556;50.002;22.014;2023-01-27T04:16:44;99398.61;;;1.42;73.08
65010;BME280;51556;50.002;22.014;2023-01-27T04:19:10;99397.58;;;1.43;72.95
65010;BME280;51556;50.002;22.014;2023-01-27T04:21:36;99396.35;;;1.41;73.04
65010;BME280;51556;50.002;22.014;2023-01-27T04:24:03;99398.44;;;1.42;73.10
65010;BME280;51556;50.002;22.014;2023-01-27T04:26:29;99400.40;;;1.49;73.08
65010;BME280;51556;50.002;22.014;2023-01-27T04:29:02;99399.91;;;1.52;73.08
65010;BME280;51556;50.002;22.014;2023-01-27T04:31:29;99395.45;;;1.56;73.14
65010;BME280;51556;50.002;22.014;2023-01-27T04:33:56;99393.77;;;1.60;72.88
65010;BME280;51556;50.002;22.014;2023-01-27T04:36:22;99397.08;;;1.62;72.76
65010;BME280;51556;50.002;22.014;2023-01-27T04:38:48;99396.46;;;1.68;72.78
65010;BME280;51556;50.002;22.014;2023-01-27T04:41:13;99392.33;;;1.72;72.27
65010;BME280;51556;50.002;22.014;2023-01-27T04:43:39;99395.26;;;1.69;72.50
65010;BME280;51556;50.002;22.014;2023-01-27T04:46:04;99395.42;;;1.68;72.55
65010;BME280;51556;50.002;22.014;2023-01-27T04:48:30;99398.89;;;1.69;72.45
65010;BME280;51556;50.002;22.014;2023-01-27T04:50:56;99394.33;;;1.63;72.38
65010;BME280;51556;50.002;22.014;2023-01-27T04:53:21;99399.64;;;1.58;72.33
65010;BME280;51556;50.002;22.014;2023-01-27T04:55:48;99401.52;;;1.54;72.53
65010;BME280;51556;50.002;22.014;2023-01-27T04:58:15;99399.04;;;1.51;72.54
65010;BME280;51556;50.002;22.014;2023-01-27T05:00:43;99397.91;;;1.42;72.63
65010;BME280;51556;50.002;22.014;2023-01-27T05:03:09;99394.25;;;1.39;72.82
65010;BME280;51556;50.002;22.014;2023-01-27T05:05:36;99392.91;;;1.44;72.99
65010;BME280;51556;50.002;22.014;2023-01-27T05:08:03;99395.33;;;1.43;72.97
65010;BME280;51556;50.002;22.014;2023-01-27T05:10:28;99393.55;;;1.40;72.94
65010;BME280;51556;50.002;22.014;2023-01-27T05:12:54;99397.02;;;1.40;72.86
65010;BME280;51556;50.002;22.014;2023-01-27T05:15:19;99401.36;;;1.41;72.94
65010;BME280;51556;50.002;22.014;2023-01-27T05:17:45;99402.00;;;1.36;73.06
65010;BME280;51556;50.002;22.014;2023-01-27T05:20:11;99398.14;;;1.32;73.05
65010;BME280;51556;50.002;22.014;2023-01-27T05:22:37;99397.63;;;1.32;73.10
65010;BME280;51556;50.002;22.014;2023-01-27T05:25:02;99399.48;;;1.28;73.22
65010;BME280;51556;50.002;22.014;2023-01-27T05:27:28;99398.73;;;1.25;73.13
65010;BME280;51556;50.002;22.014;2023-01-27T05:29:54;99397.39;;;1.27;73.23
65010;BME280;51556;50.002;22.014;2023-01-27T05:32:20;99397.59;;;1.29;73.36
65010;BME280;51556;50.002;22.014;2023-01-27T05:34:45;99395.38;;;1.32;73.41
65010;BME280;51556;50.002;22.014;2023-01-27T05:37:11;99398.88;;;1.35;73.28
65010;BME280;51556;50.002;22.014;2023-01-27T05:39:36;99401.50;;;1.38;73.06
65010;BME280;51556;50.002;22.014;2023-01-27T05:42:04;99398.73;;;1.38;73.04
65010;BME280;51556;50.002;22.014;2023-01-27T05:44:30;99402.39;;;1.39;73.22
65010;BME280;51556;50.002;22.014;2023-01-27T05:46:55;99398.04;;;1.38;73.25
65010;BME280;51556;50.002;22.014;2023-01-27T05:49:21;99402.37;;;1.38;73.12
65010;BME280;51556;50.002;22.014;2023-01-27T05:51:47;99403.90;;;1.35;73.03
65010;BME280;51556;50.002;22.014;2023-01-27T05:54:12;99403.36;;;1.33;73.06
65010;BME280;51556;50.002;22.014;2023-01-27T05:56:40;99402.33;;;1.34;73.18
65010;BME280;51556;50.002;22.014;2023-01-27T05:59:06;99407.43;;;1.41;72.94
65010;BME280;51556;50.002;22.014;2023-01-27T06:01:33;99411.77;;;1.40;73.17
65010;BME280;51556;50.002;22.014;2023-01-27T06:04:07;99407.39;;;1.37;72.97
65010;BME280;51556;50.002;22.014;2023-01-27T06:06:33;99412.95;;;1.38;72.93
65010;BME280;51556;50.002;22.014;2023-01-27T06:09:20;99413.66;;;1.39;73.09
65010;BME280;51556;50.002;22.014;2023-01-27T06:11:47;99414.91;;;1.42;73.22
65010;BME280;51556;50.002;22.014;2023-01-27T06:14:12;99411.60;;;1.41;72.86
65010;BME280;51556;50.002;22.014;2023-01-27T06:16:38;99410.88;;;1.38;72.96
65010;BME280;51556;50.002;22.014;2023-01-27T06:19:03;99411.96;;;1.42;73.09
65010;BME280;51556;50.002;22.014;2023-01-27T06:21:29;99410.98;;;1.47;73.01
65010;BME280;51556;50.002;22.014;2023-01-27T06:23:54;99415.20;;;1.54;72.92
65010;BME280;51556;50.002;22.014;2023-01-27T06:26:22;99417.60;;;1.52;72.64
65010;BME280;51556;50.002;22.014;2023-01-27T06:28:48;99418.82;;;1.52;72.86
65010;BME280;51556;50.002;22.014;2023-01-27T06:31:16;99420.89;;;1.49;72.86
65010;BME280;51556;50.002;22.014;2023-01-27T06:33:42;99423.48;;;1.48;72.81
65010;BME280;51556;50.002;22.014;2023-01-27T06:36:10;99424.34;;;1.46;72.81
65010;BME280;51556;50.002;22.014;2023-01-27T06:38:37;99428.82;;;1.44;72.76
65010;BME280;51556;50.002;22.014;2023-01-27T06:41:03;99432.39;;;1.39;72.97
65010;BME280;51556;50.002;22.014;2023-01-27T06:43:29;99431.33;;;1.38;72.84
65010;BME280;51556;50.002;22.014;2023-01-27T06:45:55;99427.14;;;1.35;72.93
65010;BME280;51556;50.002;22.014;2023-01-27T06:48:25;99428.14;;;1.32;72.84
65010;BME280;51556;50.002;22.014;2023-01-27T06:50:52;99431.58;;;1.29;73.04
65010;BME280;51556;50.002;22.014;2023-01-27T06:53:18;99429.67;;;1.30;73.25
65010;BME280;51556;50.002;22.014;2023-01-27T06:56:04;99428.91;;;1.25;73.13
65010;BME280;51556;50.002;22.014;2023-01-27T06:58:29;99434.04;;;1.19;73.14
65010;BME280;51556;50.002;22.014;2023-01-27T07:00:57;99438.35;;;1.18;73.13
65010;BME280;51556;50.002;22.014;2023-01-27T07:03:23;99434.45;;;1.10;73.49
65010;BME280;51556;50.002;22.014;2023-01-27T07:05:49;99435.06;;;1.04;73.68
65010;BME280;51556;50.002;22.014;2023-01-27T07:08:15;99438.86;;;1.03;73.72
65010;BME280;51556;50.002;22.014;2023-01-27T07:10:41;99433.45;;;1.00;73.79
65010;BME280;51556;50.002;22.014;2023-01-27T07:13:11;99434.27;;;0.97;73.83
65010;BME280;51556;50.002;22.014;2023-01-27T07:15:37;99435.65;;;0.96;73.92
65010;BME280;51556;50.002;22.014;2023-01-27T07:18:03;99437.74;;;0.97;73.71
65010;BME280;51556;50.002;22.014;2023-01-27T07:20:39;99442.05;;;0.95;73.95
65010;BME280;51556;50.002;22.014;2023-01-27T07:23:05;99441.77;;;0.99;73.89
65010;BME280;51556;50.002;22.014;2023-01-27T07:25:32;99444.06;;;1.03;73.86
65010;BME280;51556;50.002;22.014;2023-01-27T07:27:59;99447.44;;;1.08;73.67
65010;BME280;51556;50.002;22.014;2023-01-27T07:30:26;99442.92;;;1.08;73.53
65010;BME280;51556;50.002;22.014;2023-01-27T07:32:52;99446.18;;;1.05;73.89
65010;BME280;51556;50.002;22.014;2023-01-27T07:35:19;99446.36;;;1.06;73.74
65010;BME280;51556;50.002;22.014;2023-01-27T07:37:45;99451.15;;;1.02;73.74
65010;BME280;51556;50.002;22.014;2023-01-27T07:40:11;99452.30;;;0.97;73.99
65010;BME280;51556;50.002;22.014;2023-01-27T07:42:38;99450.70;;;0.94;74.09
65010;BME280;51556;50.002;22.014;2023-01-27T07:45:04;99456.41;;;0.94;74.20
65010;BME280;51556;50.002;22.014;2023-01-27T07:47:29;99454.90;;;0.97;74.10
65010;BME280;51556;50.002;22.014;2023-01-27T07:49:55;99456.27;;;0.97;74.13
65010;BME280;51556;50.002;22.014;2023-01-27T07:52:20;99453.65;;;0.95;74.29
65010;BME280;51556;50.002;22.014;2023-01-27T07:54:46;99457.48;;;0.95;74.24
65010;BME280;51556;50.002;22.014;2023-01-27T07:57:12;99459.86;;;0.93;74.17
65010;BME280;51556;50.002;22.014;2023-01-27T07:59:37;99458.49;;;0.95;74.23
65010;BME280;51556;50.002;22.014;2023-01-27T08:02:06;99459.02;;;0.95;74.22
65010;BME280;51556;50.002;22.014;2023-01-27T08:04:34;99461.86;;;0.99;74.31
65010;BME280;51556;50.002;22.014;2023-01-27T08:07:00;99463.62;;;1.00;74.05
65010;BME280;51556;50.002;22.014;2023-01-27T08:09:26;99462.08;;;1.02;73.94
65010;BME280;51556;50.002;22.014;2023-01-27T08:11:51;99460.20;;;1.03;73.60
65010;BME280;51556;50.002;22.014;2023-01-27T08:14:17;99465.69;;;1.00;73.65
65010;BME280;51556;50.002;22.014;2023-01-27T08:16:43;99469.54;;;1.03;73.90
65010;BME280;51556;50.002;22.014;2023-01-27T08:19:08;99473.42;;;1.07;73.84
65010;BME280;51556;50.002;22.014;2023-01-27T08:21:34;99475.55;;;1.11;74.02
65010;BME280;51556;50.002;22.014;2023-01-27T08:23:59;99474.10;;;1.20;73.72
65010;BME280;51556;50.002;22.014;2023-01-27T08:26:27;99477.31;;;1.26;73.56
65010;BME280;51556;50.002;22.014;2023-01-27T08:28:53;99481.23;;;1.33;73.08
65010;BME280;51556;50.002;22.014;2023-01-27T08:31:19;99479.41;;;1.41;73.17
65010;BME280;51556;50.002;22.014;2023-01-27T08:33:50;99480.02;;;1.46;72.67
65010;BME280;51556;50.002;22.014;2023-01-27T08:36:19;99474.26;;;1.44;72.58
65010;BME280;51556;50.002;22.014;2023-01-27T08:38:45;99477.58;;;1.46;72.64
65010;BME280;51556;50.002;22.014;2023-01-27T08:41:16;99480.55;;;1.48;72.38
65010;BME280;51556;50.002;22.014;2023-01-27T08:43:42;99483.64;;;1.44;72.45
65010;BME280;51556;50.002;22.014;2023-01-27T08:46:09;99484.71;;;1.49;72.75
65010;BME280;51556;50.002;22.014;2023-01-27T08:51:46;99481.52;;;1.57;72.35
65010;BME280;51556;50.002;22.014;2023-01-27T08:54:12;99485.23;;;1.62;72.27
65010;BME280;51556;50.002;22.014;2023-01-27T08:56:37;99490.87;;;1.69;72.29
65010;BME280;51556;50.002;22.014;2023-01-27T08:59:03;99495.04;;;1.69;71.73
65010;BME280;51556;50.002;22.014;2023-01-27T09:01:28;99492.06;;;1.67;71.91
65010;BME280;51556;50.002;22.014;2023-01-27T09:03:54;99491.52;;;1.66;71.81
65010;BME280;51556;50.002;22.014;2023-01-27T09:06:19;99498.14;;;1.67;71.92
65010;BME280;51556;50.002;22.014;2023-01-27T09:08:46;99499.42;;;1.73;71.70
65010;BME280;51556;50.002;22.014;2023-01-27T09:11:33;99497.22;;;1.77;71.68
65010;BME280;51556;50.002;22.014;2023-01-27T09:13:59;99493.64;;;1.83;71.74
65010;BME280;51556;50.002;22.014;2023-01-27T09:16:24;99494.42;;;1.92;71.26
65010;BME280;51556;50.002;22.014;2023-01-27T09:18:50;99495.13;;;1.92;71.19
65010;BME280;51556;50.002;22.014;2023-01-27T09:21:16;99497.07;;;1.95;71.11
65010;BME280;51556;50.002;22.014;2023-01-27T09:23:41;99495.70;;;1.97;70.49
65010;BME280;51556;50.002;22.014;2023-01-27T09:26:07;99494.80;;;1.95;70.71
65010;BME280;51556;50.002;22.014;2023-01-27T09:28:32;99496.17;;;1.94;70.71
65010;BME280;51556;50.002;22.014;2023-01-27T09:30:58;99500.21;;;1.97;70.75
65010;BME280;51556;50.002;22.014;2023-01-27T09:33:24;99500.01;;;1.94;70.51
65010;BME280;51556;50.002;22.014;2023-01-27T09:36:02;99502.41;;;1.93;70.45
65010;BME280;51556;50.002;22.014;2023-01-27T09:38:32;99502.93;;;1.92;70.36
65010;BME280;51556;50.002;22.014;2023-01-27T09:49:37;99496.23;;;1.99;70.45
65010;BME280;51556;50.002;22.014;2023-01-27T09:54:40;99489.01;;;2.04;70.09
65010;BME280;51556;50.002;22.014;2023-01-27T10:16:25;99452.43;;;2.30;69.56
65010;BME280;51556;50.002;22.014;2023-01-27T10:19:26;99450.79;;;2.40;68.84
65010;BME280;51556;50.002;22.014;2023-01-27T10:21:45;99437.23;;;2.39;69.25
65010;BME280;51556;50.002;22.014;2023-01-27T10:26:55;99435.13;;;2.56;69.16
65010;BME280;51556;50.002;22.014;2023-01-27T10:29:39;99436.36;;;2.60;67.72
65010;BME280;51556;50.002;22.014;2023-01-27T10:35:19;99441.42;;;2.42;67.52
65010;BME280;51556;50.002;22.014;2023-01-27T10:40:33;99452.68;;;2.38;67.93
65010;BME280;51556;50.002;22.014;2023-01-27T10:43:15;99453.14;;;2.32;68.51
65010;BME280;51556;50.002;22.014;2023-01-27T10:46:19;99457.27;;;2.26;68.79
65010;BME280;51556;50.002;22.014;2023-01-27T10:48:50;99462.27;;;2.24;69.12
65010;BME280;51556;50.002;22.014;2023-01-27T10:51:30;99464.96;;;2.32;70.10
65010;BME280;51556;50.002;22.014;2023-01-27T10:56:53;99467.80;;;2.39;68.94
65010;BME280;51556;50.002;22.014;2023-01-27T10:59:44;99468.88;;;2.42;68.78
65010;BME280;51556;50.002;22.014;2023-01-27T11:02:16;99469.80;;;2.47;68.45
65010;BME280;51556;50.002;22.014;2023-01-27T11:04:52;99465.98;;;2.47;68.38
65010;BME280;51556;50.002;22.014;2023-01-27T11:07:20;99459.59;;;2.53;68.47
65010;BME280;51556;50.002;22.014;2023-01-27T11:10:15;99455.67;;;2.65;68.42
65010;BME280;51556;50.002;22.014;2023-01-27T11:12:48;99454.89;;;2.77;67.77
65010;BME280;51556;50.002;22.014;2023-01-27T11:15:35;99449.01;;;2.79;67.42
65010;BME280;51556;50.002;22.014;2023-01-27T11:18:19;99447.91;;;2.73;67.52
65010;BME280;51556;50.002;22.014;2023-01-27T11:21:08;99443.02;;;2.69;67.88
65010;BME280;51556;50.002;22.014;2023-01-27T11:23:40;99445.31;;;2.73;66.96
65010;BME280;51556;50.002;22.014;2023-01-27T11:28:50;99443.14;;;2.61;67.00
65010;BME280;51556;50.002;22.014;2023-01-27T11:34:05;99443.00;;;2.66;67.17
65010;BME280;51556;50.002;22.014;2023-01-27T11:36:42;99441.75;;;2.62;66.97
65010;BME280;51556;50.002;22.014;2023-01-27T11:39:09;99441.39;;;2.58;67.51
65010;BME280;51556;50.002;22.014;2023-01-27T11:41:41;99449.91;;;2.63;67.74
65010;BME280;51556;50.002;22.014;2023-01-27T11:44:25;99451.92;;;2.75;67.50
65010;BME280;51556;50.002;22.014;2023-01-27T11:46:55;99446.79;;;2.84;66.81
65010;BME280;51556;50.002;22.014;2023-01-27T11:49:43;99445.88;;;2.78;66.71
65010;BME280;51556;50.002;22.014;2023-01-27T11:52:16;99446.75;;;2.80;66.94
65010;BME280;51556;50.002;22.014;2023-01-27T11:55:00;99443.08;;;2.77;66.53
65010;BME280;51556;50.002;22.014;2023-01-27T11:57:28;99440.13;;;2.77;66.98
65010;BME280;51556;50.002;22.014;2023-01-27T11:59:58;99434.45;;;2.84;66.76
65010;BME280;51556;50.002;22.014;2023-01-27T12:02:46;99437.55;;;2.81;66.47
65010;BME280;51556;50.002;22.014;2023-01-27T12:05:43;99441.90;;;2.83;66.40
65010;BME280;51556;50.002;22.014;2023-01-27T12:08:10;99441.39;;;2.84;66.23
65010;BME280;51556;50.002;22.014;2023-01-27T12:10:40;99435.64;;;2.82;65.80
65010;BME280;51556;50.002;22.014;2023-01-27T12:13:16;99440.60;;;2.71;65.80
65010;BME280;51556;50.002;22.014;2023-01-27T12:16:02;99442.52;;;2.73;66.41
65010;BME280;51556;50.002;22.014;2023-01-27T12:18:32;99437.46;;;2.70;66.22
65010;BME280;51556;50.002;22.014;2023-01-27T12:21:05;99439.33;;;2.62;65.91
65010;BME280;51556;50.002;22.014;2023-01-27T12:23:36;99439.11;;;2.56;66.18
65010;BME280;51556;50.002;22.014;2023-01-27T12:26:06;99440.65;;;2.52;66.22
65010;BME280;51556;50.002;22.014;2023-01-27T12:31:10;99438.16;;;2.46;66.75
65010;BME280;51556;50.002;22.014;2023-01-27T12:33:37;99439.13;;;2.56;67.30
65010;BME280;51556;50.002;22.014;2023-01-27T12:36:14;99442.97;;;2.61;66.68
65010;BME280;51556;50.002;22.014;2023-01-27T12:38:52;99446.75;;;2.55;66.49
65010;BME280;51556;50.002;22.014;2023-01-27T12:41:21;99441.33;;;2.51;66.62
65010;BME280;51556;50.002;22.014;2023-01-27T12:43:52;99445.32;;;2.50;66.22
65010;BME280;51556;50.002;22.014;2023-01-27T12:46:24;99446.49;;;2.45;66.03
65010;BME280;51556;50.002;22.014;2023-01-27T12:48:52;99445.92;;;2.40;66.06
65010;BME280;51556;50.002;22.014;2023-01-27T12:51:21;99446.06;;;2.37;66.40
65010;BME280;51556;50.002;22.014;2023-01-27T12:53:49;99447.83;;;2.38;65.97
65010;BME280;51556;50.002;22.014;2023-01-27T12:56:20;99451.08;;;2.34;65.80
65010;BME280;51556;50.002;22.014;2023-01-27T12:58:57;99449.10;;;2.26;65.71
65010;BME280;51556;50.002;22.014;2023-01-27T13:01:34;99448.17;;;2.18;66.11
65010;BME280;51556;50.002;22.014;2023-01-27T13:06:37;99445.27;;;2.07;66.21
65010;BME280;51556;50.002;22.014;2023-01-27T13:11:45;99446.05;;;1.97;66.38
65010;BME280;51556;50.002;22.014;2023-01-27T13:14:15;99442.88;;;1.93;66.59
65010;BME280;51556;50.002;22.014;2023-01-27T13:16:49;99449.58;;;1.86;66.67
65010;BME280;51556;50.002;22.014;2023-01-27T13:19:16;99443.72;;;1.90;66.74
65010;BME280;51556;50.002;22.014;2023-01-27T13:21:42;99434.19;;;1.92;66.43
65010;BME280;51556;50.002;22.014;2023-01-27T13:24:12;99426.52;;;1.90;66.46
65010;BME280;51556;50.002;22.014;2023-01-27T13:26:40;99426.41;;;1.96;66.52
65010;BME280;51556;50.002;22.014;2023-01-27T13:31:55;99418.37;;;2.07;66.63
65010;BME280;51556;50.002;22.014;2023-01-27T13:44:37;99428.42;;;1.90;67.24
65010;BME280;51556;50.002;22.014;2023-01-27T13:47:11;99429.46;;;1.88;67.32
65010;BME280;51556;50.002;22.014;2023-01-27T13:49:43;99433.44;;;1.86;67.53
65010;BME280;51556;50.002;22.014;2023-01-27T13:52:11;99435.86;;;1.85;67.26
65010;BME280;51556;50.002;22.014;2023-01-27T13:54:37;99436.74;;;1.88;67.52
65010;BME280;51556;50.002;22.014;2023-01-27T13:57:26;99435.69;;;1.85;67.37
65010;BME280;51556;50.002;22.014;2023-01-27T14:05:27;99442.97;;;2.01;67.54
65010;BME280;51556;50.002;22.014;2023-01-27T14:11:18;99449.06;;;2.03;67.35
65010;BME280;51556;50.002;22.014;2023-01-27T14:16:53;99455.67;;;2.04;66.60
65010;BME280;51556;50.002;22.014;2023-01-27T14:22:12;99454.17;;;1.95;66.34
65010;BME280;51556;50.002;22.014;2023-01-27T14:24:57;99457.73;;;1.86;66.36
65010;BME280;51556;50.002;22.014;2023-01-27T14:27:44;99463.46;;;1.70;66.13
65010;BME280;51556;50.002;22.014;2023-01-27T14:30:18;99462.11;;;1.59;66.41
65010;BME280;51556;50.002;22.014;2023-01-27T14:32:57;99460.80;;;1.64;66.43
65010;BME280;51556;50.002;22.014;2023-01-27T14:35:43;99467.18;;;1.63;66.34
65010;BME280;51556;50.002;22.014;2023-01-27T14:38:30;99468.10;;;1.66;66.02
65010;BME280;51556;50.002;22.014;2023-01-27T14:52:18;99490.05;;;1.59;65.27
65010;BME280;51556;50.002;22.014;2023-01-27T14:57:20;99491.46;;;1.62;65.39
65010;BME280;51556;50.002;22.014;2023-01-27T14:59:52;99489.59;;;1.64;64.85
65010;BME280;51556;50.002;22.014;2023-01-27T15:02:38;99487.84;;;1.63;64.79
65010;BME280;51556;50.002;22.014;2023-01-27T15:05:28;99481.36;;;1.59;64.30